Time;durP1;ratioP1;P1;durP2;ratioP2;P2;SDS_P1;SDS_P2;PMS_P1;PMS_P2;Temp;Humidity;BMP_temperature;BMP_pressure;BME280_temperature;BME280_humidity;BME280_pressure;Samples;Min_cycle;Max_cycle;Signal;HPM_P1;HPM_P2
2021/09/21 00:01:42;;;;;;;31.43;22.93;;;;;;;6.10;87.45;99553.33;2311940;76;20947;-80
2021/09/21 00:04:42;;;;;;;27.93;21.73;;;;;;;6.13;87.37;99552.16;2281500;76;21002;-80
2021/09/21 00:07:43;;;;;;;33.80;21.83;;;;;;;6.14;87.31;99555.62;2310781;76;20909;-81
2021/09/21 00:10:44;;;;;;;20.97;16.73;;;;;;;6.17;87.34;99556.64;2313037;76;21041;-81
2021/09/21 00:13:44;;;;;;;18.97;15.47;;;;;;;6.16;87.12;99554.87;2311172;76;20964;-80
2021/09/21 00:16:45;;;;;;;22.70;15.07;;;;;;;6.13;87.10;99554.75;2310176;77;21320;-80
2021/09/21 00:19:45;;;;;;;17.33;14.77;;;;;;;6.08;87.18;99557.97;2310936;77;20947;-80
2021/09/21 00:22:46;;;;;;;21.10;16.00;;;;;;;6.01;87.06;99555.09;2316704;76;20951;-81
2021/09/21 00:25:46;;;;;;;20.90;14.37;;;;;;;5.96;87.12;99557.91;2319675;76;20975;-81
2021/09/21 00:28:47;;;;;;;42.23;25.60;;;;;;;5.92;87.16;99559.02;2314064;76;20955;-80
2021/09/21 00:31:55;;;;;;;24.60;17.97;;;;;;;5.91;87.43;99551.66;2313534;77;20955;-78
2021/09/21 00:34:50;;;;;;;22.60;16.77;;;;;;;5.91;87.50;99555.54;2309731;76;21316;-79
2021/09/21 00:37:50;;;;;;;22.43;16.20;;;;;;;5.90;87.32;99556.36;2315487;76;20955;-77
2021/09/21 00:40:51;;;;;;;21.50;14.73;;;;;;;5.85;87.30;99555.66;2312545;76;20955;-79
2021/09/21 00:43:51;;;;;;;23.10;14.77;;;;;;;5.81;87.21;99555.06;2313067;76;21375;-80
2021/09/21 00:46:52;;;;;;;22.90;17.93;;;;;;;5.75;87.24;99553.09;2313989;76;20994;-80
2021/09/21 00:49:53;;;;;;;25.00;19.57;;;;;;;5.72;87.20;99562.03;2282148;77;21026;-79
2021/09/21 00:52:53;;;;;;;26.17;20.27;;;;;;;5.66;87.17;99558.78;2314956;75;20967;-80
2021/09/21 00:55:54;;;;;;;34.37;19.23;;;;;;;5.64;87.18;99560.83;2314865;75;20947;-80
2021/09/21 00:58:54;;;;;;;28.50;16.27;;;;;;;5.60;86.84;99558.52;2314669;76;21126;-79
2021/09/21 01:01:55;;;;;;;28.13;17.83;;;;;;;5.56;86.67;99561.80;2315634;75;20983;-79
2021/09/21 01:04:55;;;;;;;20.17;16.23;;;;;;;5.47;86.08;99563.98;2280770;76;21524;-79
2021/09/21 01:07:56;;;;;;;23.33;15.87;;;;;;;5.40;86.27;99565.84;2314038;77;21395;-79
2021/09/21 01:10:56;;;;;;;24.60;14.63;;;;;;;5.36;86.07;99563.93;2284804;76;20991;-80
2021/09/21 01:13:57;;;;;;;19.47;13.70;;;;;;;5.35;86.58;99563.05;2372657;75;20936;-79
2021/09/21 01:16:57;;;;;;;18.17;13.00;;;;;;;5.38;86.94;99566.18;2371133;75;20955;-80
2021/09/21 01:19:58;;;;;;;20.77;13.23;;;;;;;5.35;86.89;99568.63;2323325;74;20943;-79
2021/09/21 01:22:59;;;;;;;15.63;12.10;;;;;;;5.35;87.21;99568.63;2307376;76;20936;-80
2021/09/21 01:25:59;;;;;;;20.50;12.47;;;;;;;5.37;87.23;99570.88;2307933;77;21045;-80
2021/09/21 01:29:00;;;;;;;20.20;12.17;;;;;;;5.37;87.22;99567.00;2315410;76;21312;-79
2021/09/21 01:32:00;;;;;;;20.63;12.80;;;;;;;5.38;87.40;99573.53;2311412;76;21273;-79
2021/09/21 01:35:01;;;;;;;15.43;11.90;;;;;;;5.35;87.23;99566.05;2308664;76;20967;-79
2021/09/21 01:38:01;;;;;;;18.13;12.77;;;;;;;5.36;87.34;99566.11;2319466;76;21007;-78
2021/09/21 01:41:02;;;;;;;20.07;11.33;;;;;;;5.43;87.47;99565.56;2308114;77;20975;-79
2021/09/21 01:44:02;;;;;;;17.67;11.87;;;;;;;5.44;87.39;99569.03;2310816;76;20940;-78
2021/09/21 01:47:04;;;;;;;17.93;11.77;;;;;;;5.43;87.30;99572.03;2318511;77;20955;-79
2021/09/21 01:50:27;;;;;;;17.13;12.23;;;;;;;5.38;87.17;99571.36;2314325;76;21339;-78
2021/09/21 01:53:21;;;;;;;17.77;11.07;;;;;;;5.35;87.18;99572.11;2304206;76;20928;-79
2021/09/21 01:59:34;;;;;;;18.73;12.43;;;;;;;5.28;87.26;99574.36;2312151;74;21347;-78
2021/09/21 02:02:35;;;;;;;21.23;12.73;;;;;;;5.23;87.28;99570.69;2297778;76;20932;-79
2021/09/21 02:05:35;;;;;;;16.80;12.30;;;;;;;5.22;87.30;99572.38;2376607;75;20932;-79
2021/09/21 02:08:36;;;;;;;19.67;12.63;;;;;;;5.24;87.26;99576.34;2288111;76;21331;-79
2021/09/21 02:11:36;;;;;;;19.00;12.53;;;;;;;5.24;87.16;99578.92;2327469;75;20954;-79
2021/09/21 02:14:37;;;;;;;22.53;14.43;;;;;;;5.23;87.10;99581.03;2296730;77;20979;-78
2021/09/21 02:17:37;;;;;;;17.67;12.30;;;;;;;5.25;87.10;99575.11;2290764;76;20939;-79
2021/09/21 02:20:38;;;;;;;18.83;13.40;;;;;;;5.27;86.98;99582.53;2371048;75;20947;-80
2021/09/21 02:23:38;;;;;;;18.77;13.00;;;;;;;5.26;86.94;99584.64;2371536;75;21308;-74
2021/09/21 02:26:39;;;;;;;29.00;13.93;;;;;;;5.25;86.90;99585.88;2303983;76;20952;-79
2021/09/21 02:29:42;;;;;;;18.53;13.73;;;;;;;5.27;87.16;99581.24;2323707;76;20962;-80
2021/09/21 02:32:42;;;;;;;20.20;12.93;;;;;;;5.29;87.05;99581.30;2361477;75;20988;-80
2021/09/21 02:35:43;;;;;;;21.33;14.37;;;;;;;5.30;87.20;99581.78;2277920;77;21362;-79
2021/09/21 02:38:44;;;;;;;18.03;13.23;;;;;;;5.30;87.16;99585.67;2325370;75;21387;-78
2021/09/21 02:41:44;;;;;;;21.33;14.13;;;;;;;5.30;87.16;99583.96;2323466;74;20982;-78
2021/09/21 02:44:45;;;;;;;22.57;12.83;;;;;;;5.29;87.27;99586.48;2314473;75;20963;-76
2021/09/21 02:47:45;;;;;;;19.87;13.70;;;;;;;5.27;87.32;99594.59;2309774;77;21059;-76
2021/09/21 02:50:46;;;;;;;23.17;12.83;;;;;;;5.27;87.29;99595.88;2312602;76;20959;-76
2021/09/21 02:53:46;;;;;;;18.53;13.47;;;;;;;5.26;87.29;99596.30;2314391;76;20987;-76
2021/09/21 02:56:47;;;;;;;28.03;16.23;;;;;;;5.26;87.35;99595.41;2277234;77;20940;-76
2021/09/21 02:59:47;;;;;;;27.53;16.27;;;;;;;5.22;87.41;99594.39;2360146;75;21350;-79
2021/09/21 03:02:48;;;;;;;31.23;17.23;;;;;;;5.22;87.52;99593.09;2372312;75;21335;-79
2021/09/21 03:05:57;;;;;;;29.80;17.90;;;;;;;5.21;87.48;99590.44;2288322;76;21023;-78
2021/09/21 03:08:53;;;;;;;30.93;17.33;;;;;;;5.17;87.42;99591.97;2316168;75;21051;-79
2021/09/21 03:12:01;;;;;;;34.50;19.30;;;;;;;5.15;87.36;99595.30;2371575;75;21423;-78
2021/09/21 03:18:14;;;;;;;33.10;19.13;;;;;;;5.15;87.47;99598.78;2359501;75;21030;-78
2021/09/21 03:21:15;;;;;;;30.60;15.77;;;;;;;5.15;87.53;99591.42;2279329;76;20997;-79
2021/09/21 03:24:15;;;;;;;20.27;15.10;;;;;;;5.12;87.61;99590.88;2325316;75;21374;-78
2021/09/21 03:27:15;;;;;;;23.87;15.23;;;;;;;5.09;87.65;99586.85;2313349;77;20944;-80
2021/09/21 03:30:16;;;;;;;29.53;17.73;;;;;;;5.04;87.68;99584.47;2313567;76;20959;-79
2021/09/21 03:33:16;;;;;;;28.00;17.17;;;;;;;5.04;87.79;99589.64;2313428;77;20948;-79
2021/09/21 03:36:17;;;;;;;21.17;14.87;;;;;;;5.02;87.85;99589.58;2313605;77;21050;-80
2021/09/21 03:39:17;;;;;;;22.33;14.03;;;;;;;4.99;87.71;99582.97;2280128;77;21121;-80
2021/09/21 03:42:18;;;;;;;22.07;13.77;;;;;;;4.96;87.74;99591.00;2316428;75;20976;-81
2021/09/21 03:45:19;;;;;;;19.67;12.80;;;;;;;4.93;87.80;99594.33;2289383;76;21323;-80
2021/09/21 03:48:19;;;;;;;21.37;13.57;;;;;;;4.92;87.80;99602.91;2315219;76;20920;-80
2021/09/21 03:51:20;;;;;;;23.13;13.03;;;;;;;4.91;87.63;99606.31;2287787;77;21005;-80
2021/09/21 03:54:20;;;;;;;16.83;11.90;;;;;;;4.91;87.73;99606.72;2312139;76;20955;-80
2021/09/21 03:57:21;;;;;;;19.77;12.70;;;;;;;4.91;87.38;99605.42;2286554;77;20963;-79
2021/09/21 04:00:21;;;;;;;22.83;12.43;;;;;;;4.89;87.55;99607.94;2370355;75;20959;-80
2021/09/21 04:03:22;;;;;;;16.00;12.20;;;;;;;4.89;87.51;99605.77;2318564;74;20983;-81
2021/09/21 04:06:22;;;;;;;20.20;12.63;;;;;;;4.91;87.49;99605.02;2311525;77;21335;-80
2021/09/21 04:09:23;;;;;;;18.77;12.60;;;;;;;4.97;87.57;99613.06;2309647;77;21379;-80
2021/09/21 04:12:23;;;;;;;29.03;13.90;;;;;;;5.05;87.35;99609.12;2298854;76;20987;-80
2021/09/21 04:15:24;;;;;;;17.73;12.93;;;;;;;5.11;87.30;99613.28;2378191;75;21081;-80
2021/09/21 04:18:27;;;;;;;19.23;12.63;;;;;;;5.16;87.07;99616.48;2290583;77;20979;-80
2021/09/21 04:21:27;;;;;;;104.00;17.93;;;;;;;5.13;86.96;99619.41;2375652;75;20944;-79
2021/09/21 04:24:28;;;;;;;20.87;14.93;;;;;;;5.17;87.07;99618.25;2272458;77;20944;-79
2021/09/21 04:27:28;;;;;;;22.80;15.87;;;;;;;5.22;87.09;99618.98;2339637;75;20983;-80
2021/09/21 04:30:29;;;;;;;22.33;15.83;;;;;;;5.28;87.11;99620.95;2340095;74;20939;-79
2021/09/21 04:33:29;;;;;;;25.47;16.63;;;;;;;5.35;87.03;99623.00;2360901;75;20931;-79
2021/09/21 04:36:30;;;;;;;26.40;15.43;;;;;;;5.44;86.95;99623.41;2284525;76;21041;-79
2021/09/21 04:39:31;;;;;;;25.10;16.17;;;;;;;5.51;86.83;99629.33;2330552;75;21318;-79
2021/09/21 04:42:31;;;;;;;26.17;15.77;;;;;;;5.58;86.82;99622.72;2310907;76;21014;-79
2021/09/21 04:45:32;;;;;;;25.57;16.17;;;;;;;5.62;86.55;99624.22;2309693;76;20952;-80
2021/09/21 04:48:32;;;;;;;20.67;15.20;;;;;;;5.65;86.50;99626.94;2277515;77;20956;-80
2021/09/21 04:51:33;;;;;;;22.13;15.43;;;;;;;5.69;86.56;99632.73;2308738;75;20959;-80
2021/09/21 04:54:33;;;;;;;23.40;14.50;;;;;;;5.75;86.50;99637.29;2311452;75;21023;-82
2021/09/21 04:57:34;;;;;;;21.03;13.50;;;;;;;5.78;86.50;99641.31;2313294;75;21004;-81
2021/09/21 05:00:35;;;;;;;21.27;14.67;;;;;;;5.79;86.39;99646.08;2313805;75;21149;-80
2021/09/21 05:03:35;;;;;;;24.33;14.23;;;;;;;5.82;86.48;99646.22;2313147;77;20972;-82
2021/09/21 05:06:36;;;;;;;16.30;12.27;;;;;;;5.87;86.39;99652.06;2311197;77;20951;-80
2021/09/21 05:09:36;;;;;;;18.03;12.80;;;;;;;5.88;86.44;99654.25;2281911;77;20944;-80
2021/09/21 05:12:37;;;;;;;17.23;13.33;;;;;;;5.88;86.47;99654.25;2261108;76;21371;-80
2021/09/21 05:15:38;;;;;;;98.80;17.40;;;;;;;5.86;86.33;99655.89;2278264;77;20956;-80
2021/09/21 05:18:38;;;;;;;23.40;15.33;;;;;;;5.86;86.41;99663.25;2298574;76;20960;-80
2021/09/21 05:21:38;;;;;;;30.87;14.27;;;;;;;5.86;86.40;99664.95;2284370;77;20983;-80
2021/09/21 05:24:39;;;;;;;22.60;14.53;;;;;;;5.90;86.47;99669.48;2270488;77;20947;-80
2021/09/21 05:27:40;;;;;;;20.60;13.90;;;;;;;5.93;86.38;99668.33;2315651;76;21553;-80
2021/09/21 05:30:41;;;;;;;19.47;13.43;;;;;;;5.92;86.13;99663.96;2281796;77;20982;-79
2021/09/21 05:33:42;;;;;;;19.60;13.30;;;;;;;5.95;86.34;99662.39;2370798;75;20966;-80
2021/09/21 05:36:42;;;;;;;27.83;14.80;;;;;;;6.02;86.23;99664.83;2368824;75;20970;-80
2021/09/21 05:39:43;;;;;;;20.93;14.77;;;;;;;6.11;86.04;99669.14;2354671;75;20955;-81
2021/09/21 05:42:43;;;;;;;19.73;14.50;;;;;;;6.23;85.90;99664.88;2373817;75;21028;-80
2021/09/21 05:45:44;;;;;;;23.33;15.37;;;;;;;6.29;85.78;99666.03;2327295;74;20960;-80
2021/09/21 05:48:44;;;;;;;21.97;15.23;;;;;;;6.36;85.41;99668.05;2316769;75;20964;-80
2021/09/21 05:51:45;;;;;;;19.20;14.03;;;;;;;6.37;85.32;99672.83;2277253;77;20924;-83
2021/09/21 05:54:45;;;;;;;19.70;14.10;;;;;;;6.44;85.28;99672.26;2312818;77;20936;-80
2021/09/21 05:57:46;;;;;;;22.67;14.87;;;;;;;6.54;85.32;99677.41;2289030;77;21301;-81
2021/09/21 06:00:46;;;;;;;22.67;15.10;;;;;;;6.66;84.88;99685.69;2370581;75;21364;-81
2021/09/21 06:03:47;;;;;;;19.20;14.40;;;;;;;6.80;84.84;99684.54;2326360;74;20985;-81
2021/09/21 06:06:47;;;;;;;17.07;12.67;;;;;;;6.95;84.52;99685.59;2287273;76;20940;-81
2021/09/21 06:09:48;;;;;;;20.73;13.90;;;;;;;7.13;84.50;99688.02;2291508;77;20945;-81
2021/09/21 06:12:48;;;;;;;24.70;14.00;;;;;;;7.34;84.21;99684.53;2291854;76;21036;-81
2021/09/21 06:15:49;;;;;;;20.83;13.83;;;;;;;7.62;83.68;99685.56;2364677;75;21614;-81
2021/09/21 06:18:49;;;;;;;22.73;14.83;;;;;;;7.84;83.11;99685.95;2325964;74;20938;-81
2021/09/21 06:21:50;;;;;;;25.17;15.57;;;;;;;8.10;83.28;99687.77;2311425;77;20928;-81
2021/09/21 06:24:51;;;;;;;22.87;14.80;;;;;;;8.43;83.21;99683.28;2313889;77;20963;-81
2021/09/21 06:27:52;;;;;;;17.77;14.03;;;;;;;8.63;82.02;99679.20;2283840;77;20963;-82
2021/09/21 06:30:52;;;;;;;21.43;14.50;;;;;;;8.77;81.94;99678.38;2372049;75;20931;-81
2021/09/21 06:33:53;;;;;;;19.00;12.93;;;;;;;8.84;80.52;99679.04;2364754;75;20913;-81
2021/09/21 06:36:54;;;;;;;21.53;14.30;;;;;;;8.93;80.76;99679.33;2365461;75;20928;-83
2021/09/21 06:39:54;;;;;;;21.33;15.03;;;;;;;8.79;80.35;99674.52;2283454;77;20971;-82
2021/09/21 06:42:55;;;;;;;19.43;13.37;;;;;;;8.80;80.73;99679.78;2315155;74;21145;-82
2021/09/21 06:45:56;;;;;;;19.00;14.23;;;;;;;8.76;80.55;99675.30;2302355;76;20967;-82
2021/09/21 06:48:57;;;;;;;21.30;14.57;;;;;;;8.72;80.38;99676.05;2290822;76;20955;-81
2021/09/21 06:51:57;;;;;;;21.27;13.07;;;;;;;8.63;79.38;99676.59;2374740;75;20971;-81
2021/09/21 06:54:58;;;;;;;18.87;13.30;;;;;;;8.61;80.45;99677.38;2369218;75;20925;-82
2021/09/21 06:57:59;;;;;;;17.93;13.33;;;;;;;8.69;79.97;99682.45;2366799;75;20944;-82
2021/09/21 07:00:59;;;;;;;20.27;12.63;;;;;;;8.86;80.03;99677.38;2289795;77;20987;-81
2021/09/21 07:04:00;;;;;;;19.13;13.57;;;;;;;9.04;79.84;99680.08;2327319;75;20960;-82
2021/09/21 07:07:00;;;;;;;19.87;13.27;;;;;;;9.13;79.38;99682.97;2311906;77;20975;-83
2021/09/21 07:10:01;;;;;;;15.50;13.07;;;;;;;9.25;79.34;99680.73;2276944;76;21296;-82
2021/09/21 07:13:01;;;;;;;17.37;11.97;;;;;;;9.48;78.79;99683.61;2365324;74;20973;-82
2021/09/21 07:16:03;;;;;;;15.33;12.37;;;;;;;9.70;78.72;99685.15;2364475;75;20944;-83
2021/09/21 07:19:04;;;;;;;16.93;12.50;;;;;;;9.89;76.57;99691.34;2368071;75;20939;-82
2021/09/21 07:22:04;;;;;;;14.47;11.13;;;;;;;9.88;77.67;99703.03;2276735;77;20927;-82
2021/09/21 07:25:05;;;;;;;19.70;11.70;;;;;;;9.97;76.55;99705.91;2315843;74;20931;-82
2021/09/21 07:28:05;;;;;;;17.17;11.13;;;;;;;9.84;74.96;99703.79;2322488;75;20951;-82
2021/09/21 07:31:06;;;;;;;13.13;10.67;;;;;;;9.84;75.09;99697.27;2308007;76;20948;-83
2021/09/21 07:34:06;;;;;;;16.63;11.37;;;;;;;9.92;73.72;99696.18;2280689;76;20955;-83
2021/09/21 07:37:09;;;;;;;14.70;11.20;;;;;;;10.05;74.77;99700.47;2312475;77;20970;-83
2021/09/21 07:40:09;;;;;;;17.20;10.90;;;;;;;10.24;74.88;99695.78;2311231;75;20993;-83
2021/09/21 07:43:11;;;;;;;13.25;10.53;;;;;;;10.47;73.94;99696.88;2313059;76;21011;-82
2021/09/21 07:46:11;;;;;;;12.03;8.77;;;;;;;10.64;74.16;99692.09;2289538;76;20990;-82
2021/09/21 07:49:12;;;;;;;13.98;9.68;;;;;;;10.78;72.65;99702.45;2268231;76;20950;-82
2021/09/21 07:52:14;;;;;;;14.63;9.00;;;;;;;10.78;70.67;99700.27;2249813;77;20922;-81
2021/09/21 07:58:17;;;;;;;12.93;10.15;;;;;;;10.84;71.81;99709.13;2282788;76;21388;-82
2021/09/21 08:01:17;;;;;;;14.65;10.00;;;;;;;11.01;71.25;99712.14;2314204;76;20919;-82
2021/09/21 08:04:18;;;;;;;30.72;10.10;;;;;;;11.14;71.46;99716.81;2313591;76;21702;-81
2021/09/21 08:07:19;;;;;;;11.45;8.85;;;;;;;11.25;70.25;99718.36;2313189;75;20967;-83
2021/09/21 08:10:19;;;;;;;13.60;9.55;;;;;;;11.37;70.30;99709.95;2313766;76;20999;-83
2021/09/21 08:13:20;;;;;;;9.60;8.60;;;;;;;11.60;68.23;99713.95;2313929;76;21033;-82
2021/09/21 08:19:23;;;;;;;15.75;9.35;;;;;;;11.72;67.39;99715.94;2285028;76;20982;-82
2021/09/21 08:22:25;;;;;;;11.90;8.85;;;;;;;11.64;66.94;99705.74;2278267;76;20946;-82
2021/09/21 08:25:26;;;;;;;10.72;7.72;;;;;;;11.93;68.23;99708.99;2299293;76;21051;-82
2021/09/21 08:28:27;;;;;;;11.12;9.10;;;;;;;12.07;65.00;99711.03;2289982;76;21326;-82
2021/09/21 08:31:27;;;;;;;11.40;8.35;;;;;;;12.08;66.92;99723.27;2293544;76;20943;-82
2021/09/21 08:34:28;;;;;;;11.30;6.83;;;;;;;12.36;65.34;99718.16;2311772;74;20939;-82
2021/09/21 08:37:28;;;;;;;8.68;6.83;;;;;;;12.51;62.45;99718.86;2309621;76;20935;-81
2021/09/21 08:40:30;;;;;;;9.08;6.53;;;;;;;12.42;63.70;99722.20;2316896;76;20991;-82
2021/09/21 08:43:32;;;;;;;8.40;6.00;;;;;;;12.44;62.95;99735.32;2276552;77;21002;-83
2021/09/21 08:46:32;;;;;;;6.60;5.97;;;;;;;12.52;62.58;99721.94;2280583;77;21004;-82
2021/09/21 08:49:33;;;;;;;8.45;6.15;;;;;;;12.84;60.40;99715.06;2294620;76;20952;-80
2021/09/21 08:52:33;;;;;;;7.10;6.12;;;;;;;12.82;61.02;99715.03;2361704;75;20928;-82
2021/09/21 08:55:34;;;;;;;7.55;6.75;;;;;;;12.53;60.74;99728.94;2359394;75;20967;-81
2021/09/21 08:58:34;;;;;;;9.68;6.55;;;;;;;12.38;61.14;99726.92;2368959;75;20983;-81
2021/09/21 09:01:35;;;;;;;10.70;6.50;;;;;;;12.63;62.28;99720.81;2285540;76;20945;-81
2021/09/21 09:04:35;;;;;;;10.53;6.45;;;;;;;12.78;60.40;99739.84;2314419;76;20972;-82
2021/09/21 09:07:36;;;;;;;10.10;6.70;;;;;;;12.68;60.52;99746.66;2315278;76;20952;-82
2021/09/21 09:10:36;;;;;;;8.08;6.37;;;;;;;12.54;60.92;99757.32;2312601;76;20928;-83
2021/09/21 09:13:37;;;;;;;9.45;6.10;;;;;;;12.54;62.07;99746.42;2315126;76;20991;-82
2021/09/21 09:16:38;;;;;;;6.78;6.08;;;;;;;12.54;62.19;99749.03;2314610;76;20967;-82
2021/09/21 09:19:38;;;;;;;8.78;6.45;;;;;;;12.69;60.85;99736.64;2313942;76;20956;-82
2021/09/21 09:22:39;;;;;;;9.10;6.92;;;;;;;12.61;60.81;99735.20;2311716;75;20967;-83
2021/09/21 09:25:39;;;;;;;7.17;6.28;;;;;;;12.75;60.45;99724.95;2313283;76;20952;-82
2021/09/21 09:28:39;;;;;;;8.23;6.03;;;;;;;12.92;59.79;99730.48;2315361;76;21387;-83
2021/09/21 09:31:40;;;;;;;7.70;5.75;;;;;;;13.15;58.79;99733.07;2312355;76;20955;-82
2021/09/21 09:34:41;;;;;;;7.78;6.30;;;;;;;13.28;60.48;99738.11;2314132;76;20991;-83
2021/09/21 09:37:41;;;;;;;6.20;5.45;;;;;;;13.29;59.26;99736.82;2314905;75;20966;-82
2021/09/21 09:40:42;;;;;;;5.92;5.33;;;;;;;13.51;57.71;99746.31;2315054;76;20997;-81
2021/09/21 09:43:44;;;;;;;6.03;5.42;;;;;;;13.54;56.60;99742.42;2314043;76;20988;-83
2021/09/21 09:46:46;;;;;;;10.20;5.50;;;;;;;13.51;56.88;99730.14;2282104;76;20995;-82
2021/09/21 09:49:49;;;;;;;7.55;5.90;;;;;;;13.78;58.47;99727.02;2308880;76;20999;-83
2021/09/21 09:52:49;;;;;;;8.00;5.70;;;;;;;14.16;57.81;99722.26;2315151;76;20990;-79
2021/09/21 09:55:50;;;;;;;5.70;5.10;;;;;;;14.13;57.35;99730.53;2314417;76;20999;-80
2021/09/21 09:58:50;;;;;;;6.92;5.55;;;;;;;14.11;55.58;99730.52;2314049;75;20968;-82
2021/09/21 10:01:51;;;;;;;7.33;5.62;;;;;;;14.19;56.73;99722.73;2315757;76;21003;-83
2021/09/21 10:04:52;;;;;;;10.13;5.87;;;;;;;14.26;56.89;99725.87;2316881;76;20987;-83
2021/09/21 10:07:52;;;;;;;7.00;5.62;;;;;;;14.09;56.53;99732.67;2314569;76;21008;-83
2021/09/21 10:10:53;;;;;;;8.15;7.08;;;;;;;13.70;55.98;99729.53;2314970;75;20944;-82
2021/09/21 10:13:53;;;;;;;8.25;6.45;;;;;;;13.97;57.07;99730.78;2311663;76;21006;-82
2021/09/21 10:16:56;;;;;;;7.15;5.40;;;;;;;14.25;56.20;99726.30;2279341;75;21042;-83
2021/09/21 10:19:56;;;;;;;8.10;5.90;;;;;;;14.56;56.28;99718.77;2310831;75;20979;-82
2021/09/21 10:22:57;;;;;;;10.48;5.42;;;;;;;14.49;55.97;99721.77;2268256;77;20986;-83
2021/09/21 10:25:58;;;;;;;9.65;5.22;;;;;;;14.70;55.14;99719.78;2272002;77;21917;-82
2021/09/21 10:28:59;;;;;;;9.60;5.33;;;;;;;14.74;54.70;99718.97;2291642;76;21312;-83
2021/09/21 10:32:00;;;;;;;8.08;5.62;;;;;;;14.94;53.98;99725.71;2324289;74;20931;-82
2021/09/21 10:35:00;;;;;;;5.87;5.33;;;;;;;15.15;50.40;99737.72;2372810;75;20983;-82
2021/09/21 10:38:01;;;;;;;7.53;5.72;;;;;;;15.21;53.06;99713.21;2363276;75;20956;-81
2021/09/21 10:41:01;;;;;;;9.95;7.12;;;;;;;15.14;53.26;99716.23;2359289;75;21362;-82
2021/09/21 10:44:02;;;;;;;7.15;5.62;;;;;;;14.72;51.90;99713.22;2357906;75;21003;-83
2021/09/21 10:47:03;;;;;;;8.90;5.65;;;;;;;14.42;52.85;99716.00;2355600;75;20927;-83
2021/09/21 10:50:04;;;;;;;12.05;5.30;;;;;;;14.36;53.96;99696.21;2364456;75;20955;-83
2021/09/21 10:53:04;;;;;;;7.42;5.78;;;;;;;14.68;52.25;99704.43;2363623;75;20907;-82
2021/09/21 10:56:05;;;;;;;8.00;5.80;;;;;;;14.89;52.60;99705.08;2358350;75;21283;-82
2021/09/21 10:59:05;;;;;;;11.55;6.78;;;;;;;14.90;52.62;99709.47;2369048;75;20952;-82
2021/09/21 11:02:06;;;;;;;7.22;5.08;;;;;;;14.85;52.84;99713.81;2371768;75;20984;-81
2021/09/21 11:05:06;;;;;;;7.55;5.40;;;;;;;15.07;51.32;99714.42;2369382;75;20952;-82
2021/09/21 11:08:11;;;;;;;9.85;6.85;;;;;;;15.23;50.69;99720.67;2370336;75;20943;-82
2021/09/21 11:11:09;;;;;;;7.37;6.30;;;;;;;15.23;50.69;99720.67;2364723;75;20986;-83
2021/09/21 11:14:10;;;;;;;17.23;9.40;;;;;;;15.06;51.78;99715.30;2275634;77;20983;-83
2021/09/21 11:17:10;;;;;;;8.78;6.53;;;;;;;14.85;52.07;99717.75;2299794;77;20987;-81
2021/09/21 11:20:11;;;;;;;35.38;7.20;;;;;;;15.11;52.37;99695.61;2295555;76;20975;-82
2021/09/21 11:23:12;;;;;;;8.38;5.53;;;;;;;15.02;52.72;99701.68;2326555;75;20974;-83
2021/09/21 11:26:12;;;;;;;6.50;5.50;;;;;;;14.63;51.12;99696.51;2310217;76;20980;-82
2021/09/21 11:29:13;;;;;;;6.12;5.50;;;;;;;14.64;52.39;99694.33;2308962;77;20928;-80
2021/09/21 11:32:13;;;;;;;7.62;5.20;;;;;;;14.58;52.77;99700.84;2313079;76;20956;-81
2021/09/21 11:35:14;;;;;;;7.35;5.30;;;;;;;14.54;52.11;99692.91;2311906;76;20956;-81
2021/09/21 11:38:15;;;;;;;9.25;5.65;;;;;;;14.74;52.10;99703.60;2312096;77;21407;-81
2021/09/21 11:41:16;;;;;;;7.83;5.20;;;;;;;15.10;51.25;99692.53;2311838;76;20944;-82
2021/09/21 11:44:17;;;;;;;10.85;5.00;;;;;;;15.10;51.25;99692.53;2314178;75;20987;-83
2021/09/21 11:47:17;;;;;;;9.10;4.65;;;;;;;15.00;52.09;99692.02;2310951;76;21127;-83
2021/09/21 11:50:18;;;;;;;7.97;4.45;;;;;;;15.03;50.56;99690.30;2312989;76;20952;-83
2021/09/21 11:53:18;;;;;;;5.87;4.65;;;;;;;15.28;51.14;99690.02;2284713;76;21579;-80
2021/09/21 11:56:19;;;;;;;6.17;4.65;;;;;;;15.30;49.99;99692.23;2307980;77;20933;-83
2021/09/21 11:59:20;;;;;;;8.43;4.62;;;;;;;15.33;49.69;99696.19;2317156;77;20995;-81
2021/09/21 12:02:21;;;;;;;8.48;4.80;;;;;;;15.17;49.84;99688.64;2279382;77;21452;-84
2021/09/21 12:05:22;;;;;;;5.70;5.10;;;;;;;14.88;50.48;99692.38;2366593;75;20975;-82
2021/09/21 12:08:22;;;;;;;6.83;5.12;;;;;;;14.76;50.94;99687.45;2368713;75;20923;-82
2021/09/21 12:11:24;;;;;;;90.87;8.95;;;;;;;14.74;51.80;99686.52;2364411;75;21027;-83
2021/09/21 12:14:26;;;;;;;4.83;4.25;;;;;;;14.89;50.99;99695.45;2366628;75;20963;-82
2021/09/21 12:17:28;;;;;;;6.37;4.00;;;;;;;15.03;51.02;99681.09;2361305;75;20974;-82
2021/09/21 12:20:29;;;;;;;9.63;4.50;;;;;;;15.15;49.55;99694.33;2367763;75;20928;-82
2021/09/21 12:23:29;;;;;;;4.60;4.20;;;;;;;15.35;50.75;99681.30;2373503;75;21657;-82
2021/09/21 12:26:30;;;;;;;10.70;4.42;;;;;;;15.86;50.17;99676.79;2370675;74;21338;-82
2021/09/21 12:29:32;;;;;;;7.42;4.17;;;;;;;16.00;49.59;99675.95;2253614;76;20908;-82
2021/09/21 12:32:33;;;;;;;4.50;4.10;;;;;;;15.78;47.53;99692.11;2311067;76;21356;-81
2021/09/21 12:35:33;;;;;;;6.25;4.28;;;;;;;15.63;48.57;99679.77;2312954;76;20948;-79
2021/09/21 12:38:34;;;;;;;6.05;4.62;;;;;;;15.59;48.18;99685.84;2312520;77;20947;-80
2021/09/21 12:41:35;;;;;;;8.45;4.92;;;;;;;15.51;49.07;99697.62;2272969;77;20949;-82
2021/09/21 12:44:35;;;;;;;7.17;4.35;;;;;;;15.27;48.32;99688.27;2288664;77;20973;-81
2021/09/21 12:47:36;;;;;;;4.80;4.30;;;;;;;15.23;49.57;99691.31;2291448;76;21371;-81
2021/09/21 12:50:36;;;;;;;6.45;4.72;;;;;;;15.25;50.08;99684.31;2297117;76;20956;-83
2021/09/21 12:53:37;;;;;;;5.37;3.90;;;;;;;15.27;50.04;99680.37;2292806;78;20969;-82
2021/09/21 12:56:37;;;;;;;5.00;4.20;;;;;;;15.39;49.74;99680.88;2293805;77;21218;-75
2021/09/21 12:59:37;;;;;;;7.67;4.53;;;;;;;15.69;49.03;99678.91;2294469;76;21471;-82
2021/09/21 13:02:38;;;;;;;10.05;4.10;;;;;;;16.04;48.72;99671.14;2293009;76;20959;-83
2021/09/21 13:05:38;;;;;;;6.65;4.50;;;;;;;16.19;47.52;99656.26;2288327;77;20972;-79
2021/09/21 13:08:41;;;;;;;5.47;4.12;;;;;;;16.08;48.02;99659.30;2273051;77;20941;-82
2021/09/21 13:11:41;;;;;;;7.42;5.03;;;;;;;16.01;48.09;99654.02;2308270;76;21007;-82
2021/09/21 13:14:44;;;;;;;5.92;5.35;;;;;;;15.90;48.48;99660.56;2312120;77;20955;-82
2021/09/21 13:17:44;;;;;;;7.20;6.15;;;;;;;15.75;49.03;99665.34;2311428;76;20962;-82
2021/09/21 13:20:45;;;;;;;5.83;5.33;;;;;;;15.77;48.60;99651.75;2315120;76;21057;-80
2021/09/21 13:23:45;;;;;;;6.67;4.60;;;;;;;15.69;48.63;99653.47;2315097;76;20987;-82
2021/09/21 13:26:47;;;;;;;6.20;4.72;;;;;;;15.80;49.05;99658.78;2318564;76;20951;-82
2021/09/21 13:29:48;;;;;;;5.97;4.72;;;;;;;15.99;50.63;99657.08;2313407;76;21007;-82
2021/09/21 13:32:51;;;;;;;5.50;4.70;;;;;;;16.21;49.31;99650.99;2275113;76;20974;-82
2021/09/21 13:35:52;;;;;;;6.87;4.78;;;;;;;16.09;49.41;99654.48;2309077;77;20956;-82
2021/09/21 13:38:52;;;;;;;6.40;5.08;;;;;;;16.01;50.25;99654.89;2316701;76;20986;-82
2021/09/21 13:41:53;;;;;;;6.20;4.55;;;;;;;15.95;50.21;99660.58;2313376;76;20935;-81
2021/09/21 13:44:53;;;;;;;6.78;4.70;;;;;;;15.89;49.61;99654.86;2311978;76;21706;-82
2021/09/21 13:47:54;;;;;;;5.75;4.42;;;;;;;15.86;48.79;99653.09;2313775;77;20948;-82
2021/09/21 13:50:54;;;;;;;13.43;6.20;;;;;;;15.61;50.12;99660.45;2311193;76;20913;-82
2021/09/21 13:53:55;;;;;;;9.28;4.40;;;;;;;15.43;49.97;99658.55;2313157;76;20959;-81
2021/09/21 13:56:55;;;;;;;8.35;5.28;;;;;;;15.30;50.89;99654.09;2312664;76;21312;-81
2021/09/21 13:59:56;;;;;;;37.90;19.35;;;;;;;15.18;51.42;99651.39;2315451;77;21671;-83
2021/09/21 14:02:56;;;;;;;56.63;29.67;;;;;;;15.17;51.32;99655.77;2319869;76;20921;-82
2021/09/21 14:05:57;;;;;;;5.80;5.10;;;;;;;15.14;51.48;99654.44;2277529;76;20919;-82
2021/09/21 14:08:57;;;;;;;5.72;4.55;;;;;;;15.06;51.28;99653.94;2290139;76;20979;-80
2021/09/21 14:11:58;;;;;;;7.08;4.53;;;;;;;14.91;51.61;99654.71;2275983;76;20914;-80
2021/09/21 14:15:00;;;;;;;8.00;4.87;;;;;;;14.74;51.77;99661.55;2282359;76;20964;-82